Time;durP1;ratioP1;P1;durP2;ratioP2;P2;SDS_P1;SDS_P2;PMS_P1;PMS_P2;Temp;Humidity;BMP_temperature;BMP_pressure;BME280_temperature;BME280_humidity;BME280_pressure;Samples;Min_cycle;Max_cycle;Signal;HPM_P1;HPM_P2
2023/07/02 00:01:03;;;;;;;5.80;4.38;;;;;;;23.31;57.08;98494.44;4966951;28;20033;-89
2023/07/02 00:03:29;;;;;;;5.95;4.38;;;;;;;23.28;56.51;98497.91;4970051;28;20034;-89
2023/07/02 00:05:56;;;;;;;6.30;4.28;;;;;;;23.34;55.79;98501.13;4982067;28;20030;-88
2023/07/02 00:08:22;;;;;;;5.28;3.78;;;;;;;23.27;55.51;98503.81;4981853;28;20027;-88
2023/07/02 00:10:47;;;;;;;8.27;5.03;;;;;;;23.21;55.74;98503.34;4978826;28;20019;-88
2023/07/02 00:13:13;;;;;;;4.72;3.90;;;;;;;23.08;55.63;98486.31;4962598;28;20042;-88
2023/07/02 00:15:39;;;;;;;5.25;3.70;;;;;;;22.98;55.70;98474.00;4961410;28;20496;-88
2023/07/02 00:18:04;;;;;;;4.20;3.50;;;;;;;23.11;55.81;98499.28;4962885;28;20038;-88
2023/07/02 00:20:34;;;;;;;5.35;3.70;;;;;;;22.92;55.95;98478.25;4946091;28;20062;-88
2023/07/02 00:23:00;;;;;;;8.23;3.88;;;;;;;22.96;55.76;98484.56;4947961;28;20053;-88
2023/07/02 00:25:25;;;;;;;4.93;3.80;;;;;;;22.96;55.90;98492.03;4963293;28;20022;-88
2023/07/02 00:27:51;;;;;;;8.48;4.40;;;;;;;22.88;55.77;98485.63;4946045;28;20500;-88
2023/07/02 00:30:16;;;;;;;4.38;3.75;;;;;;;22.83;56.07;98476.94;4946366;28;20011;-88
2023/07/02 00:32:42;;;;;;;6.20;4.40;;;;;;;22.61;57.46;98476.66;4945751;28;20030;-88
2023/07/02 00:35:07;;;;;;;4.32;3.58;;;;;;;22.56;58.05;98482.47;4945799;28;20485;-87
2023/07/02 00:37:33;;;;;;;5.22;4.18;;;;;;;22.48;58.13;98481.56;4946521;28;20062;-88
2023/07/02 00:39:58;;;;;;;4.88;4.03;;;;;;;22.59;57.63;98474.28;4961815;28;20038;-88
2023/07/02 00:42:26;;;;;;;6.20;4.45;;;;;;;22.68;57.36;98486.94;4946845;28;20412;-88
2023/07/02 00:44:52;;;;;;;6.93;4.95;;;;;;;22.65;57.64;98482.19;4962241;28;20588;-88
2023/07/02 00:47:17;;;;;;;6.25;5.05;;;;;;;22.64;57.45;98480.59;4945763;28;20066;-88
2023/07/02 00:49:43;;;;;;;8.18;4.78;;;;;;;22.60;58.20;98480.56;4947084;28;20031;-88
2023/07/02 00:52:09;;;;;;;10.38;5.82;;;;;;;22.65;57.23;98477.50;4945204;28;20026;-88
2023/07/02 00:54:35;;;;;;;7.57;6.20;;;;;;;22.65;57.11;98482.97;4946507;28;20485;-88
2023/07/02 00:57:03;;;;;;;8.48;6.03;;;;;;;22.58;57.07;98469.97;4946410;28;20019;-87
2023/07/02 00:59:30;;;;;;;9.25;6.30;;;;;;;22.49;57.36;98472.16;4945518;28;20025;-88
2023/07/02 01:01:56;;;;;;;9.00;5.90;;;;;;;22.54;57.19;98473.81;4978081;28;20023;-88
2023/07/02 01:04:27;;;;;;;7.35;5.65;;;;;;;22.49;57.49;98477.66;4945506;28;20576;-88
2023/07/02 01:06:57;;;;;;;8.25;6.40;;;;;;;22.53;57.28;98481.25;4946462;28;20033;-88
2023/07/02 01:09:22;;;;;;;9.02;6.53;;;;;;;22.50;57.43;98478.47;4963324;28;20127;-88
2023/07/02 01:11:53;;;;;;;9.02;5.93;;;;;;;22.39;57.76;98484.59;4961340;28;20032;-88
2023/07/02 01:14:35;;;;;;;11.02;5.82;;;;;;;22.50;57.63;98487.47;4961075;28;20026;-88
2023/07/02 01:17:01;;;;;;;6.25;5.40;;;;;;;22.42;57.89;98482.28;4977978;28;20022;-88
2023/07/02 01:19:45;;;;;;;8.23;5.28;;;;;;;22.47;58.13;98490.16;4962213;28;20033;-88
2023/07/02 01:22:10;;;;;;;8.30;5.72;;;;;;;22.33;59.53;98468.78;4993111;28;20026;-88
2023/07/02 01:24:37;;;;;;;6.38;5.05;;;;;;;22.24;60.95;98476.50;4964461;28;20033;-88
2023/07/02 01:27:02;;;;;;;8.40;4.85;;;;;;;22.08;61.36;98471.94;4964256;28;20120;-88
2023/07/02 01:29:31;;;;;;;8.40;5.55;;;;;;;22.03;61.48;98466.75;4961108;28;20058;-88
2023/07/02 01:31:56;;;;;;;5.85;4.95;;;;;;;21.97;61.98;98470.97;4961518;28;20046;-88
2023/07/02 01:34:22;;;;;;;7.07;4.85;;;;;;;21.88;62.30;98481.41;4960305;28;20022;-88
2023/07/02 01:36:47;;;;;;;6.63;5.38;;;;;;;21.79;62.34;98471.47;4945222;28;20023;-88
2023/07/02 01:39:13;;;;;;;9.57;5.53;;;;;;;21.74;62.35;98471.75;4959723;28;20104;-89
2023/07/02 01:41:51;;;;;;;7.75;5.40;;;;;;;21.72;63.01;98471.31;4961315;28;20035;-88
2023/07/02 01:44:17;;;;;;;6.22;5.22;;;;;;;21.64;63.10;98486.06;4961169;28;20051;-87
2023/07/02 01:46:43;;;;;;;6.22;5.03;;;;;;;21.53;63.83;98477.66;4960055;28;20042;-88
2023/07/02 01:49:09;;;;;;;6.28;4.97;;;;;;;21.50;63.99;98478.38;4960427;28;20493;-88
2023/07/02 01:51:34;;;;;;;5.85;5.05;;;;;;;21.45;64.28;98478.66;4960758;28;20096;-88
2023/07/02 01:54:00;;;;;;;5.60;5.07;;;;;;;21.47;64.84;98487.31;4976777;28;20022;-88
2023/07/02 01:56:26;;;;;;;5.72;4.80;;;;;;;21.45;65.22;98486.88;4959596;28;20110;-88
2023/07/02 01:58:52;;;;;;;7.18;5.45;;;;;;;21.28;65.65;98468.16;4963516;28;20034;-88
2023/07/02 02:01:17;;;;;;;5.70;4.80;;;;;;;21.35;65.35;98476.50;4959646;28;20027;-88
2023/07/02 02:03:43;;;;;;;5.78;5.13;;;;;;;21.27;65.33;98478.31;4944096;28;20485;-89
2023/07/02 02:06:08;;;;;;;7.95;6.43;;;;;;;21.17;65.28;98473.44;4944665;28;20019;-88
2023/07/02 02:08:34;;;;;;;6.88;5.35;;;;;;;21.14;65.60;98477.66;4944399;28;20027;-88
2023/07/02 02:11:00;;;;;;;9.05;5.32;;;;;;;21.20;65.55;98497.31;4945282;28;20026;-88
2023/07/02 02:13:26;;;;;;;6.00;4.82;;;;;;;21.14;66.64;98501.50;4944539;28;20445;-88
2023/07/02 02:15:51;;;;;;;7.53;5.57;;;;;;;21.02;66.89;98483.28;4961128;28;20042;-88
2023/07/02 02:18:17;;;;;;;7.70;5.35;;;;;;;20.97;67.18;98487.09;4961137;28;20038;-88
2023/07/02 02:20:42;;;;;;;7.38;5.07;;;;;;;20.88;67.28;98483.00;4944098;28;20061;-88
2023/07/02 02:23:07;;;;;;;7.13;5.43;;;;;;;20.82;67.96;98481.69;4955284;28;20026;-88
2023/07/02 02:25:33;;;;;;;6.15;5.18;;;;;;;20.81;67.69;98499.25;4975349;28;20031;-89
2023/07/02 02:27:58;;;;;;;6.03;5.43;;;;;;;20.57;68.10;98481.91;4961307;28;20107;-89
2023/07/02 02:30:24;;;;;;;6.53;5.53;;;;;;;20.58;68.19;98481.56;4963983;28;20034;-89
2023/07/02 02:32:49;;;;;;;8.07;5.97;;;;;;;20.55;68.58;98487.75;4962785;28;20027;-89
2023/07/02 02:35:15;;;;;;;6.93;5.50;;;;;;;20.46;68.85;98478.94;4976738;28;20023;-89
2023/07/02 02:37:40;;;;;;;10.52;6.22;;;;;;;20.45;69.54;98490.25;4943706;28;20023;-88
2023/07/02 02:40:09;;;;;;;9.75;6.50;;;;;;;20.37;69.79;98472.88;4973163;28;20037;-89
2023/07/02 02:42:35;;;;;;;7.63;6.55;;;;;;;20.29;69.92;98469.16;4980145;28;20463;-89
2023/07/02 02:45:01;;;;;;;8.55;5.80;;;;;;;20.35;69.43;98484.16;4996413;28;20031;-89
2023/07/02 02:47:26;;;;;;;8.38;6.28;;;;;;;20.29;69.96;98482.84;4980985;28;20489;-89
2023/07/02 02:49:52;;;;;;;11.88;6.65;;;;;;;20.23;69.69;98478.78;4983835;28;20022;-88
2023/07/02 02:52:18;;;;;;;9.45;6.55;;;;;;;20.22;70.26;98479.94;4983121;28;20108;-89
2023/07/02 02:54:43;;;;;;;8.35;6.80;;;;;;;20.23;70.77;98483.47;4983438;28;20025;-89
2023/07/02 02:57:09;;;;;;;11.35;6.88;;;;;;;20.26;70.69;98485.50;4983484;28;20046;-89
2023/07/02 02:59:34;;;;;;;11.52;6.47;;;;;;;20.30;70.32;98484.44;4983871;28;20076;-89
2023/07/02 03:02:00;;;;;;;9.88;6.18;;;;;;;20.28;70.07;98491.41;4982954;28;20026;-89
2023/07/02 03:04:25;;;;;;;11.73;6.32;;;;;;;20.27;70.26;98487.09;4966097;28;20101;-89
2023/07/02 03:06:52;;;;;;;9.10;6.07;;;;;;;20.22;70.55;98482.69;4967819;28;20022;-89
2023/07/02 03:09:19;;;;;;;7.75;6.00;;;;;;;20.26;70.30;98494.50;4983763;28;20026;-89
2023/07/02 03:11:44;;;;;;;11.10;6.22;;;;;;;20.13;70.92;98498.47;4982935;28;20073;-89
2023/07/02 03:14:10;;;;;;;8.95;6.43;;;;;;;20.02;71.41;98497.41;4983074;28;20098;-89
2023/07/02 03:16:35;;;;;;;10.80;6.28;;;;;;;20.05;71.43;98502.19;4966516;28;20030;-88
2023/07/02 03:19:01;;;;;;;9.02;6.60;;;;;;;19.97;71.16;98487.56;4983252;28;20412;-88
2023/07/02 03:21:26;;;;;;;14.20;6.57;;;;;;;19.98;71.70;98489.13;4965941;28;20404;-89
2023/07/02 03:23:52;;;;;;;10.20;6.90;;;;;;;20.09;71.44;98514.00;4981774;28;20484;-88
2023/07/02 03:26:19;;;;;;;12.20;7.18;;;;;;;20.02;71.59;98494.69;4982911;28;20080;-89
2023/07/02 03:28:45;;;;;;;10.90;7.70;;;;;;;20.00;71.71;98500.50;4982366;28;20037;-89
2023/07/02 03:31:10;;;;;;;9.18;6.68;;;;;;;19.93;72.24;98492.13;4982678;28;20038;-89
2023/07/02 03:33:36;;;;;;;11.32;7.55;;;;;;;19.99;71.79;98488.00;4966507;28;20049;-89
2023/07/02 03:36:01;;;;;;;11.38;7.28;;;;;;;19.94;71.73;98493.72;4982862;28;20023;-88
2023/07/02 03:38:27;;;;;;;10.93;7.07;;;;;;;19.95;71.81;98492.56;4982965;28;20423;-89
2023/07/02 03:40:52;;;;;;;12.48;7.85;;;;;;;20.05;71.25;98494.00;4966853;28;20030;-88
2023/07/02 03:43:18;;;;;;;10.55;7.97;;;;;;;20.14;71.74;98513.72;4981905;28;20120;-89
2023/07/02 03:45:43;;;;;;;12.45;8.20;;;;;;;20.04;71.15;98506.84;4964248;28;20061;-88
2023/07/02 03:48:08;;;;;;;11.52;8.02;;;;;;;20.10;71.65;98518.31;4962581;28;20073;-88
2023/07/02 03:50:34;;;;;;;12.82;7.50;;;;;;;20.07;71.90;98517.09;4947299;28;20031;-89
2023/07/02 03:52:59;;;;;;;11.00;7.85;;;;;;;20.05;71.96;98526.78;4963615;28;20011;-89
2023/07/02 03:55:25;;;;;;;18.48;7.78;;;;;;;20.08;71.72;98528.81;4961664;28;20031;-88
2023/07/02 03:57:50;;;;;;;10.85;8.93;;;;;;;20.05;71.74;98526.78;4962496;28;20481;-89
2023/07/02 04:00:16;;;;;;;13.55;8.27;;;;;;;20.15;71.09;98537.16;4946229;28;20485;-89
2023/07/02 04:02:41;;;;;;;10.40;7.82;;;;;;;20.17;71.26;98522.03;4947549;28;20113;-89
2023/07/02 04:05:07;;;;;;;11.43;7.60;;;;;;;20.16;71.35;98520.41;4963273;28;20136;-89
2023/07/02 04:07:32;;;;;;;13.63;7.95;;;;;;;20.19;70.94;98513.44;4962786;28;20030;-89
2023/07/02 04:09:58;;;;;;;10.55;7.53;;;;;;;20.26;71.10;98518.31;4963862;28;20030;-88
2023/07/02 04:12:23;;;;;;;9.45;7.80;;;;;;;20.19;70.53;98514.25;4946602;28;20031;-89
2023/07/02 04:14:49;;;;;;;12.13;8.07;;;;;;;20.21;71.39;98532.22;4961829;28;20031;-89
2023/07/02 04:17:14;;;;;;;9.27;7.60;;;;;;;20.28;70.25;98541.41;4963213;28;20026;-89
2023/07/02 04:19:39;;;;;;;12.88;7.95;;;;;;;20.42;70.54;98538.22;4944468;28;20026;-89
2023/07/02 04:22:05;;;;;;;9.98;7.72;;;;;;;20.41;70.09;98530.38;4947504;28;20035;-89
2023/07/02 04:24:31;;;;;;;12.00;7.88;;;;;;;20.46;70.23;98541.03;4947436;28;20034;-89
2023/07/02 04:26:56;;;;;;;13.93;7.95;;;;;;;20.52;70.75;98542.34;4945843;28;20035;-89
2023/07/02 04:29:22;;;;;;;13.38;7.70;;;;;;;20.59;70.78;98540.63;4931149;28;20044;-89
2023/07/02 04:31:47;;;;;;;16.55;8.55;;;;;;;20.67;70.17;98546.22;4929845;28;20042;-89
2023/07/02 04:34:13;;;;;;;10.05;8.10;;;;;;;20.66;69.73;98541.94;4947149;28;20107;-89
2023/07/02 04:36:38;;;;;;;8.32;7.20;;;;;;;20.77;69.52;98551.97;4930972;28;20085;-89
2023/07/02 04:39:04;;;;;;;11.52;7.85;;;;;;;20.88;69.40;98559.63;4945675;28;20101;-89
2023/07/02 04:41:29;;;;;;;11.15;8.25;;;;;;;20.95;69.19;98567.97;4930892;28;20037;-89
2023/07/02 04:43:55;;;;;;;10.05;8.18;;;;;;;20.99;69.18;98566.91;4945823;28;20089;-89
2023/07/02 04:46:21;;;;;;;12.02;8.65;;;;;;;21.17;68.74;98578.25;4946776;28;20425;-89
2023/07/02 04:48:46;;;;;;;11.30;8.23;;;;;;;21.18;68.50;98577.06;4946339;28;20030;-88
2023/07/02 04:51:12;;;;;;;12.07;8.43;;;;;;;21.15;68.14;98580.56;4945454;28;20042;-89
2023/07/02 04:53:37;;;;;;;10.40;7.97;;;;;;;21.23;67.93;98567.81;4930571;28;20031;-89
2023/07/02 04:56:03;;;;;;;8.45;7.32;;;;;;;21.31;67.37;98577.75;4944777;28;20034;-90
2023/07/02 04:58:29;;;;;;;8.98;7.00;;;;;;;21.55;66.37;98573.16;4944934;28;20031;-89
2023/07/02 05:00:54;;;;;;;8.27;7.38;;;;;;;21.65;65.50;98574.53;4945462;28;20033;-89
2023/07/02 05:03:20;;;;;;;9.82;7.75;;;;;;;21.75;66.04;98577.47;4945293;28;20034;-89
2023/07/02 05:05:45;;;;;;;12.13;7.55;;;;;;;21.67;66.31;98569.50;4946058;28;20038;-89
2023/07/02 05:08:10;;;;;;;8.15;6.80;;;;;;;21.78;66.77;98584.19;4929004;28;20027;-89
2023/07/02 05:10:36;;;;;;;11.10;7.38;;;;;;;21.88;66.13;98582.81;4928828;28;20035;-89
2023/07/02 05:13:01;;;;;;;14.82;7.38;;;;;;;21.96;66.18;98581.78;4929041;28;20097;-89
2023/07/02 05:15:27;;;;;;;14.18;7.05;;;;;;;22.15;65.29;98589.16;4928763;28;20022;-89
2023/07/02 05:17:52;;;;;;;10.57;6.60;;;;;;;22.24;64.92;98581.50;4929174;28;20401;-89
2023/07/02 05:20:18;;;;;;;7.53;6.47;;;;;;;22.29;64.23;98572.97;4934578;29;20034;-89
2023/07/02 05:22:43;;;;;;;8.32;6.32;;;;;;;22.48;63.61;98582.28;4941894;29;20031;-89
2023/07/02 05:25:09;;;;;;;9.00;6.70;;;;;;;22.52;63.66;98603.13;4948020;28;20027;-89
2023/07/02 05:27:34;;;;;;;8.60;6.00;;;;;;;22.52;63.33;98599.59;4938560;28;20137;-89
2023/07/02 05:30:00;;;;;;;8.15;6.32;;;;;;;22.73;63.28;98602.69;4944289;28;20138;-89
2023/07/02 05:32:25;;;;;;;9.98;6.00;;;;;;;22.83;63.72;98597.72;4929820;28;20031;-90
2023/07/02 05:34:50;;;;;;;7.40;5.78;;;;;;;22.99;62.14;98590.91;4928260;28;20543;-90
2023/07/02 05:37:16;;;;;;;9.68;5.78;;;;;;;22.99;62.02;98573.63;4945412;28;20096;-89
2023/07/02 05:39:41;;;;;;;5.95;5.32;;;;;;;23.32;61.33;98585.88;4932684;29;20489;-89
2023/07/02 05:42:07;;;;;;;10.80;5.90;;;;;;;23.28;61.47;98576.78;4924648;29;20111;-90
2023/07/02 05:44:32;;;;;;;8.45;5.68;;;;;;;23.48;61.41;98577.44;4941262;29;20142;-89
2023/07/02 05:46:58;;;;;;;7.63;5.63;;;;;;;23.84;60.04;98584.13;4937620;28;20050;-90
2023/07/02 05:49:23;;;;;;;8.45;5.72;;;;;;;23.87;59.09;98582.63;4944423;28;20026;-90
2023/07/02 05:51:49;;;;;;;8.20;6.00;;;;;;;23.98;58.93;98587.03;4944875;28;20029;-89
2023/07/02 05:54:14;;;;;;;10.35;5.65;;;;;;;24.07;58.18;98588.69;4944661;28;20030;-90
2023/07/02 05:56:40;;;;;;;7.68;6.03;;;;;;;24.24;57.77;98577.09;4944122;28;20047;-90
2023/07/02 05:59:05;;;;;;;8.80;5.70;;;;;;;24.57;56.85;98589.16;4943670;28;20030;-90
2023/07/02 06:01:30;;;;;;;8.05;4.30;;;;;;;24.72;53.93;98590.06;4958730;28;20037;-90
2023/07/02 06:03:56;;;;;;;6.47;4.68;;;;;;;24.91;52.62;98591.78;4965231;28;20089;-89
2023/07/02 06:06:25;;;;;;;4.72;4.22;;;;;;;25.07;52.15;98600.53;4978546;28;20105;-90
2023/07/02 06:08:50;;;;;;;6.45;4.50;;;;;;;25.19;52.14;98602.97;4964581;28;20041;-90
2023/07/02 06:11:16;;;;;;;6.57;4.25;;;;;;;25.15;51.71;98582.06;4963430;28;20090;-90
2023/07/02 06:13:41;;;;;;;5.68;4.30;;;;;;;25.25;51.72;98591.59;4963146;28;20018;-90
2023/07/02 06:16:07;;;;;;;8.48;4.55;;;;;;;25.00;52.36;98572.94;4962722;28;20021;-89
2023/07/02 06:18:32;;;;;;;5.18;4.63;;;;;;;24.98;52.54;98578.81;4963513;28;20022;-90
2023/07/02 06:20:58;;;;;;;9.23;4.20;;;;;;;25.34;50.60;98579.03;4963173;28;20022;-90
2023/07/02 06:23:23;;;;;;;19.15;4.57;;;;;;;25.60;50.04;98590.94;4963552;28;20361;-90
2023/07/02 06:25:52;;;;;;;6.78;4.40;;;;;;;25.88;50.34;98595.78;4979520;28;20425;-90
2023/07/02 06:28:18;;;;;;;4.75;4.00;;;;;;;25.87;50.52;98594.19;4961066;28;20035;-90
2023/07/02 06:30:44;;;;;;;5.05;3.63;;;;;;;26.02;49.74;98581.22;4963494;28;20093;-90
2023/07/02 06:33:10;;;;;;;7.72;3.60;;;;;;;26.11;50.02;98578.09;4960968;28;20058;-90
2023/07/02 06:35:35;;;;;;;8.45;4.10;;;;;;;26.13;49.66;98571.00;4978556;28;20058;-90
2023/07/02 06:38:01;;;;;;;9.88;4.30;;;;;;;26.31;49.49;98582.03;4978989;28;20014;-90
2023/07/02 06:40:26;;;;;;;7.53;4.38;;;;;;;26.44;49.39;98565.91;4963862;28;20026;-90
2023/07/02 06:42:51;;;;;;;7.15;5.03;;;;;;;26.66;49.69;98591.53;4971487;28;20022;-90
2023/07/02 06:45:17;;;;;;;6.10;4.68;;;;;;;26.71;49.11;98579.28;4966448;28;20495;-90
2023/07/02 06:47:43;;;;;;;5.25;4.18;;;;;;;26.78;48.57;98579.31;4963746;28;20497;-90
2023/07/02 06:50:08;;;;;;;7.50;4.57;;;;;;;26.76;48.52;98587.97;4972442;28;20485;-90
2023/07/02 06:52:34;;;;;;;6.70;4.65;;;;;;;26.70;48.76;98578.50;4979470;28;20023;-89
2023/07/02 06:54:59;;;;;;;6.88;5.15;;;;;;;26.50;49.50;98577.31;4995232;28;20073;-90
2023/07/02 06:57:25;;;;;;;6.43;5.15;;;;;;;26.38;50.08;98584.81;4978585;28;20507;-90
2023/07/02 06:59:51;;;;;;;5.90;4.97;;;;;;;26.59;49.00;98589.56;4996087;28;20030;-90
2023/07/02 07:02:16;;;;;;;6.72;5.18;;;;;;;26.80;48.98;98586.00;4963548;28;20049;-91
2023/07/02 07:04:42;;;;;;;8.63;5.25;;;;;;;26.80;50.24;98591.53;4962955;28;20555;-91
2023/07/02 07:07:07;;;;;;;8.40;4.95;;;;;;;27.12;48.99;98590.69;4962647;28;20472;-90
2023/07/02 07:09:32;;;;;;;5.28;4.38;;;;;;;27.32;46.82;98596.56;4961535;28;20022;-90
2023/07/02 07:11:58;;;;;;;7.07;4.93;;;;;;;27.28;47.59;98578.41;4966470;28;20033;-89
2023/07/02 07:14:23;;;;;;;5.35;4.00;;;;;;;27.55;46.15;98601.59;4975611;28;20062;-90
2023/07/02 07:16:49;;;;;;;5.47;3.92;;;;;;;27.79;45.17;98602.69;4978961;28;20054;-90
2023/07/02 07:19:15;;;;;;;5.20;3.58;;;;;;;27.71;45.04;98594.84;4964075;28;20102;-90
2023/07/02 07:21:42;;;;;;;5.95;4.13;;;;;;;27.79;45.07;98591.63;4979731;28;20396;-90
2023/07/02 07:24:10;;;;;;;7.75;3.85;;;;;;;27.87;45.15;98599.91;4964094;28;20045;-90
2023/07/02 07:26:36;;;;;;;5.43;3.60;;;;;;;27.97;45.21;98607.34;4963624;28;20022;-89
2023/07/02 07:29:01;;;;;;;4.95;3.42;;;;;;;27.87;44.75;98592.41;4963479;28;20053;-89
2023/07/02 07:31:27;;;;;;;6.93;3.60;;;;;;;27.92;43.16;98583.66;4965927;28;20030;-90
2023/07/02 07:33:52;;;;;;;4.80;3.47;;;;;;;27.96;43.83;98580.88;4967407;28;20022;-90
2023/07/02 07:36:18;;;;;;;6.30;3.83;;;;;;;27.94;44.06;98586.03;4967513;28;20029;-90
2023/07/02 07:38:44;;;;;;;6.18;3.88;;;;;;;27.90;44.94;98580.50;4967221;28;20018;-90
2023/07/02 07:41:09;;;;;;;6.97;3.80;;;;;;;28.11;43.74;98584.34;4966531;28;20029;-90
2023/07/02 07:43:35;;;;;;;5.50;3.97;;;;;;;28.07;43.84;98589.88;4966331;28;20041;-91
2023/07/02 07:46:00;;;;;;;3.92;3.10;;;;;;;28.04;44.03;98578.84;4966180;28;20042;-91
2023/07/02 07:48:26;;;;;;;5.80;3.42;;;;;;;28.00;43.87;98584.41;4967017;28;20498;-90
2023/07/02 07:50:51;;;;;;;5.47;3.72;;;;;;;28.02;43.69;98585.56;4967304;28;20019;-90
2023/07/02 07:53:17;;;;;;;6.00;3.72;;;;;;;27.99;43.18;98578.09;4967234;28;20041;-90
2023/07/02 07:55:43;;;;;;;5.00;3.30;;;;;;;28.07;43.41;98583.56;4968045;28;20026;-91
2023/07/02 07:58:08;;;;;;;6.50;3.65;;;;;;;28.09;44.09;98595.03;4982836;28;20402;-91
2023/07/02 08:00:34;;;;;;;6.93;3.78;;;;;;;27.92;44.07;98596.72;4965738;28;20022;-91
2023/07/02 08:03:00;;;;;;;4.68;3.45;;;;;;;28.07;44.11;98595.41;4966253;28;20097;-90
2023/07/02 08:05:26;;;;;;;7.65;3.72;;;;;;;28.01;44.81;98595.06;4965638;28;20023;-90
2023/07/02 08:07:53;;;;;;;4.93;3.05;;;;;;;27.99;45.02;98610.50;4982183;28;20080;-90
2023/07/02 08:10:19;;;;;;;5.68;3.88;;;;;;;27.85;44.54;98600.28;4966289;28;20022;-90
2023/07/02 08:12:46;;;;;;;6.47;3.67;;;;;;;27.95;45.37;98610.53;4966273;28;20045;-90
2023/07/02 08:15:11;;;;;;;6.75;3.38;;;;;;;27.86;44.26;98603.84;4966918;28;20019;-90
2023/07/02 08:17:37;;;;;;;8.38;3.92;;;;;;;27.75;44.65;98599.16;4965417;28;20559;-90
2023/07/02 08:20:04;;;;;;;7.55;3.67;;;;;;;27.68;44.63;98606.69;4965622;28;20184;-90
2023/07/02 08:22:30;;;;;;;6.68;3.50;;;;;;;27.68;44.50;98601.16;4963217;28;20382;-90
2023/07/02 08:24:55;;;;;;;6.07;3.58;;;;;;;27.67;44.89;98594.06;4962423;28;20173;-90
2023/07/02 08:27:21;;;;;;;6.50;3.55;;;;;;;27.63;45.91;98583.00;4976199;28;20514;-90
2023/07/02 08:29:47;;;;;;;5.95;3.38;;;;;;;27.63;44.76;98591.31;4965379;28;20033;-90
2023/07/02 08:32:12;;;;;;;7.28;3.67;;;;;;;27.54;44.16;98566.06;4965435;28;20034;-90
2023/07/02 08:34:38;;;;;;;6.18;3.53;;;;;;;27.55;45.63;98557.34;4982231;28;20480;-90
2023/07/02 08:37:03;;;;;;;5.53;3.30;;;;;;;27.36;46.45;98561.41;4965009;28;20018;-90
2023/07/02 08:39:29;;;;;;;5.95;4.10;;;;;;;27.49;47.11;98550.66;4983066;28;20023;-90
2023/07/02 08:41:54;;;;;;;6.32;3.65;;;;;;;27.59;47.23;98565.63;4982470;28;20030;-90
2023/07/02 08:44:21;;;;;;;5.45;3.70;;;;;;;27.59;46.57;98571.16;4981908;28;20088;-90
2023/07/02 08:46:50;;;;;;;5.32;3.25;;;;;;;27.61;46.49;98577.09;4974415;28;20056;-90
2023/07/02 08:49:15;;;;;;;6.50;4.28;;;;;;;27.61;48.72;98588.16;4967499;28;20389;-91
2023/07/02 08:51:41;;;;;;;5.40;3.92;;;;;;;27.58;50.98;98598.03;4980725;28;20081;-90
2023/07/02 08:54:06;;;;;;;6.45;3.83;;;;;;;27.56;50.89;98581.06;4987018;28;20029;-90
2023/07/02 08:56:32;;;;;;;7.78;4.00;;;;;;;27.65;51.39;98590.91;5002806;28;20044;-90
2023/07/02 08:58:59;;;;;;;5.55;3.80;;;;;;;27.55;52.26;98582.25;4985416;28;20054;-90
2023/07/02 09:01:24;;;;;;;5.70;3.97;;;;;;;27.55;51.46;98589.75;4985493;28;20041;-90
2023/07/02 09:03:50;;;;;;;4.82;3.55;;;;;;;27.54;49.05;98582.66;4999098;28;20026;-90
2023/07/02 09:06:17;;;;;;;5.07;3.63;;;;;;;27.61;48.68;98593.69;4981593;28;20045;-90
2023/07/02 09:08:43;;;;;;;6.68;4.03;;;;;;;27.51;51.21;98584.22;4979968;28;20027;-89
2023/07/02 09:11:09;;;;;;;7.72;4.20;;;;;;;27.77;50.11;98591.22;4978798;28;20077;-90
2023/07/02 09:13:52;;;;;;;6.40;3.95;;;;;;;27.83;48.68;98586.06;4999268;28;20037;-90
2023/07/02 09:16:28;;;;;;;5.60;4.07;;;;;;;28.07;48.10;98603.72;4994789;28;20019;-90
2023/07/02 09:19:05;;;;;;;5.78;3.80;;;;;;;28.02;47.50;98590.34;5005507;28;20061;-90
2023/07/02 09:21:47;;;;;;;7.72;3.70;;;;;;;28.21;46.37;98584.25;4967065;28;20457;-90
2023/07/02 09:24:19;;;;;;;7.85;5.25;;;;;;;28.18;46.28;98596.16;4950972;28;20130;-90
2023/07/02 09:26:58;;;;;;;9.38;4.30;;;;;;;28.16;46.77;98604.06;4981069;28;20117;-90
2023/07/02 09:29:24;;;;;;;6.25;3.67;;;;;;;28.12;44.71;98588.66;4950129;28;20030;-89
2023/07/02 09:31:50;;;;;;;7.35;3.72;;;;;;;28.30;42.71;98591.31;4966303;28;20022;-90
2023/07/02 09:34:15;;;;;;;5.65;3.20;;;;;;;28.10;41.25;98600.16;4948849;28;20394;-90
2023/07/02 09:36:41;;;;;;;7.68;3.70;;;;;;;28.15;41.49;98593.41;4950582;28;20030;-89
2023/07/02 09:39:14;;;;;;;6.85;2.95;;;;;;;28.12;40.43;98608.84;4965966;28;20061;-89
2023/07/02 09:41:42;;;;;;;5.40;3.40;;;;;;;28.36;41.01;98606.31;4966083;28;20493;-89
2023/07/02 09:44:09;;;;;;;5.55;3.50;;;;;;;28.68;41.97;98613.56;4950768;28;20559;-89
2023/07/02 09:46:43;;;;;;;10.05;3.60;;;;;;;28.78;41.16;98601.63;4940115;28;20567;-89
2023/07/02 09:49:10;;;;;;;7.07;4.85;;;;;;;28.79;43.50;98592.13;4930057;28;20045;-90
2023/07/02 09:51:35;;;;;;;6.18;4.07;;;;;;;29.15;43.44;98597.31;4946577;28;20090;-89
2023/07/02 09:54:01;;;;;;;6.45;3.10;;;;;;;29.31;38.70;98605.84;4962044;28;20019;-90
2023/07/02 09:56:26;;;;;;;5.50;2.88;;;;;;;29.27;37.63;98591.25;4962333;28;20030;-90
2023/07/02 09:58:52;;;;;;;9.15;3.33;;;;;;;29.41;37.90;98593.06;4962207;28;20026;-92
2023/07/02 10:01:17;;;;;;;5.35;3.28;;;;;;;29.44;37.77;98589.44;4945446;28;20014;-90
2023/07/02 10:03:43;;;;;;;5.32;3.15;;;;;;;29.53;38.97;98600.03;4962738;28;20388;-91
2023/07/02 10:06:08;;;;;;;4.35;3.00;;;;;;;29.45;37.71;98591.03;4962294;28;20027;-91
2023/07/02 10:08:34;;;;;;;4.05;3.08;;;;;;;29.51;37.95;98599.66;4945916;28;20397;-90
2023/07/02 10:11:13;;;;;;;6.15;3.40;;;;;;;29.45;38.64;98590.22;4962591;28;20027;-90
2023/07/02 10:13:41;;;;;;;5.57;3.20;;;;;;;29.38;39.31;98585.56;4962149;28;20023;-90
2023/07/02 10:16:07;;;;;;;8.35;3.83;;;;;;;29.56;41.04;98590.91;4946299;28;20053;-90
2023/07/02 10:18:32;;;;;;;6.20;3.72;;;;;;;29.57;39.47;98589.69;4946858;28;20114;-90
2023/07/02 10:20:58;;;;;;;6.88;3.83;;;;;;;29.83;40.71;98592.94;4946515;28;20054;-91
2023/07/02 10:23:34;;;;;;;6.22;3.78;;;;;;;29.83;40.85;98584.63;4945274;28;20061;-88
2023/07/02 10:26:18;;;;;;;5.93;3.60;;;;;;;29.69;41.91;98583.56;4962628;28;20114;-89
2023/07/02 10:28:59;;;;;;;4.15;3.20;;;;;;;29.73;40.16;98572.47;4962663;28;20037;-89
2023/07/02 10:31:25;;;;;;;4.55;3.10;;;;;;;29.60;38.50;98570.22;4946782;28;20089;-89
2023/07/02 10:33:51;;;;;;;7.47;3.30;;;;;;;29.31;38.78;98574.56;4948570;28;20035;-90
2023/07/02 10:36:23;;;;;;;5.75;3.25;;;;;;;29.64;38.41;98572.16;4944779;28;20027;-90
2023/07/02 10:38:52;;;;;;;4.90;2.92;;;;;;;29.33;38.28;98558.28;4961871;28;20473;-90
2023/07/02 10:41:43;;;;;;;6.25;3.22;;;;;;;29.41;38.65;98570.88;4962605;28;20460;-89
2023/07/02 10:44:08;;;;;;;6.95;2.97;;;;;;;29.36;38.64;98565.78;4914862;28;20481;-89
2023/07/02 10:46:35;;;;;;;5.18;3.17;;;;;;;28.95;39.83;98569.38;4961712;28;20055;-89
2023/07/02 10:49:00;;;;;;;5.97;3.40;;;;;;;29.04;39.31;98561.38;4979873;28;20031;-89
2023/07/02 10:51:29;;;;;;;5.03;3.33;;;;;;;29.09;40.04;98554.56;4963789;28;20023;-89
2023/07/02 10:53:59;;;;;;;5.32;3.50;;;;;;;29.13;39.83;98564.44;4964281;28;20038;-89
2023/07/02 10:56:26;;;;;;;5.57;3.28;;;;;;;29.05;38.84;98553.84;4980511;28;20077;-90
2023/07/02 10:58:52;;;;;;;5.88;3.42;;;;;;;29.02;39.93;98552.69;4964818;28;20015;-89
2023/07/02 11:01:31;;;;;;;5.05;3.10;;;;;;;28.88;39.70;98559.16;4965887;28;20018;-89
2023/07/02 11:04:01;;;;;;;5.85;3.42;;;;;;;28.76;39.09;98557.72;4966560;28;20022;-89
2023/07/02 11:06:30;;;;;;;6.28;3.65;;;;;;;28.81;38.96;98550.94;4986181;28;20428;-90
2023/07/02 11:08:56;;;;;;;7.55;3.47;;;;;;;28.96;37.49;98548.78;4986973;28;20029;-90
2023/07/02 11:11:25;;;;;;;7.75;4.05;;;;;;;28.99;37.17;98547.94;4954537;28;20023;-92
2023/07/02 11:13:51;;;;;;;6.35;3.53;;;;;;;29.01;38.15;98540.00;4970961;28;20054;-91
2023/07/02 11:16:26;;;;;;;6.07;3.72;;;;;;;29.04;37.87;98543.97;4984603;28;20029;-90
2023/07/02 11:18:53;;;;;;;4.82;3.40;;;;;;;28.93;38.33;98541.28;4986163;28;20512;-90
2023/07/02 11:21:18;;;;;;;8.50;4.22;;;;;;;29.02;36.73;98547.91;4984853;28;20463;-90
2023/07/02 11:23:44;;;;;;;7.43;4.55;;;;;;;29.02;36.13;98539.59;4983112;28;20026;-89
2023/07/02 11:26:09;;;;;;;5.75;3.53;;;;;;;29.29;37.29;98535.38;4982570;28;20377;-90
2023/07/02 11:28:35;;;;;;;7.00;3.22;;;;;;;29.30;37.95;98529.41;4966601;28;20565;-90